Time;durP1;ratioP1;P1;durP2;ratioP2;P2;SDS_P1;SDS_P2;PMS_P1;PMS_P2;Temp;Humidity;BMP_temperature;BMP_pressure;BME280_temperature;BME280_humidity;BME280_pressure;Samples;Min_cycle;Max_cycle;Signal;HPM_P1;HPM_P2
2022/08/20 00:01:02;;;;;;;10.35;6.65;;;21.10;96.70;;;;;;5076125;28;20094;-84
2022/08/20 00:03:34;;;;;;;9.63;6.50;;;21.10;96.70;;;;;;5074706;28;20028;-85
2022/08/20 00:06:05;;;;;;;11.88;7.10;;;21.10;96.70;;;;;;5075930;28;20029;-85
2022/08/20 00:08:31;;;;;;;11.25;7.05;;;21.00;96.60;;;;;;5078013;28;20024;-86
2022/08/20 00:10:58;;;;;;;11.38;7.18;;;21.00;96.60;;;;;;5076516;28;20031;-87
2022/08/20 00:13:32;;;;;;;13.55;7.63;;;21.00;96.70;;;;;;5079205;28;20024;-86
2022/08/20 00:15:58;;;;;;;11.45;8.20;;;21.00;96.70;;;;;;5080095;28;20036;-86
2022/08/20 00:18:24;;;;;;;11.70;7.32;;;21.00;97.00;;;;;;5075224;28;20070;-86
2022/08/20 00:20:53;;;;;;;11.48;7.93;;;21.00;96.80;;;;;;5075596;28;20139;-87
2022/08/20 00:23:20;;;;;;;11.65;7.07;;;21.00;96.90;;;;;;5075768;28;20028;-86
2022/08/20 00:25:46;;;;;;;11.10;7.15;;;21.00;96.90;;;;;;5074763;28;20095;-87
2022/08/20 00:28:13;;;;;;;11.40;7.30;;;21.00;96.90;;;;;;5074379;28;20032;-87
2022/08/20 00:30:41;;;;;;;10.98;7.57;;;20.90;96.90;;;;;;5073863;28;20059;-89
2022/08/20 00:33:19;;;;;;;9.77;6.53;;;20.90;96.90;;;;;;5074033;28;20054;-89
2022/08/20 00:35:53;;;;;;;13.05;7.88;;;20.90;96.90;;;;;;5074562;28;20068;-88
2022/08/20 00:38:19;;;;;;;10.20;7.25;;;21.00;97.00;;;;;;5074288;28;20063;-88
2022/08/20 00:40:52;;;;;;;11.75;8.13;;;20.90;97.00;;;;;;5073949;28;20035;-88
2022/08/20 00:43:27;;;;;;;12.77;8.05;;;20.90;97.00;;;;;;5075368;28;20341;-84
2022/08/20 00:45:56;;;;;;;11.45;7.60;;;20.90;97.10;;;;;;5078159;28;20024;-86
2022/08/20 00:48:27;;;;;;;18.10;10.02;;;20.90;97.10;;;;;;5074930;28;20021;-87
2022/08/20 00:51:05;;;;;;;14.35;8.85;;;20.90;97.20;;;;;;5074059;28;20046;-86
2022/08/20 00:53:32;;;;;;;13.13;8.70;;;20.90;97.30;;;;;;5074670;28;20025;-87
2022/08/20 00:55:59;;;;;;;14.23;10.05;;;20.90;97.40;;;;;;5076480;28;20049;-87
2022/08/20 00:58:26;;;;;;;15.07;10.23;;;20.90;97.40;;;;;;5058027;28;20029;-88
2022/08/20 01:00:52;;;;;;;13.15;9.85;;;20.80;97.50;;;;;;5058328;28;20051;-88
2022/08/20 01:03:19;;;;;;;16.65;10.65;;;20.80;97.50;;;;;;5077179;28;20024;-87
2022/08/20 01:05:48;;;;;;;15.70;10.80;;;20.80;97.60;;;;;;5073480;28;20111;-85
2022/08/20 01:08:17;;;;;;;14.27;10.45;;;20.80;97.70;;;;;;5072948;28;20021;-86
2022/08/20 01:10:47;;;;;;;13.38;10.25;;;20.80;97.80;;;;;;5074296;28;20046;-87
2022/08/20 01:13:17;;;;;;;13.95;9.80;;;20.70;97.80;;;;;;5073159;28;20017;-87
2022/08/20 01:15:46;;;;;;;14.93;10.48;;;20.70;97.90;;;;;;5073289;28;20074;-87
2022/08/20 01:18:17;;;;;;;15.85;10.70;;;20.70;98.00;;;;;;5074292;28;20028;-88
2022/08/20 01:20:48;;;;;;;18.77;12.63;;;20.70;98.10;;;;;;5072718;28;20041;-85
2022/08/20 01:23:44;;;;;;;17.17;11.68;;;20.70;98.20;;;;;;5073734;28;20025;-86
2022/08/20 01:26:24;;;;;;;14.88;10.48;;;20.70;98.30;;;;;;5069837;28;20040;-86
2022/08/20 01:28:54;;;;;;;18.20;12.48;;;20.70;98.30;;;;;;5072207;28;20112;-86
2022/08/20 01:31:26;;;;;;;20.05;13.35;;;20.60;98.30;;;;;;5072344;28;20082;-84
2022/08/20 01:33:53;;;;;;;17.55;11.65;;;20.60;98.40;;;;;;5074148;28;20031;-87
2022/08/20 01:36:28;;;;;;;20.20;13.07;;;20.60;98.40;;;;;;5072811;28;20032;-87
2022/08/20 01:38:54;;;;;;;17.40;12.50;;;20.60;98.50;;;;;;5072588;28;20064;-87
2022/08/20 01:41:32;;;;;;;20.08;13.80;;;20.60;98.50;;;;;;5055745;28;20072;-87
2022/08/20 01:43:58;;;;;;;18.40;12.25;;;20.60;98.60;;;;;;5074236;28;20051;-86
2022/08/20 01:46:31;;;;;;;17.35;12.05;;;20.60;98.70;;;;;;5069119;28;20036;-87
2022/08/20 01:48:58;;;;;;;18.65;13.18;;;20.60;98.70;;;;;;5072472;28;20498;-87
2022/08/20 01:51:27;;;;;;;18.80;13.00;;;20.60;98.80;;;;;;5074702;28;20115;-87
2022/08/20 01:53:55;;;;;;;20.23;13.65;;;20.60;98.80;;;;;;5077618;28;20029;-86
2022/08/20 01:56:24;;;;;;;23.40;14.05;;;20.60;98.90;;;;;;5072859;28;20059;-88
2022/08/20 01:58:53;;;;;;;19.98;12.75;;;20.60;98.90;;;;;;5074470;28;20056;-86
2022/08/20 02:01:31;;;;;;;18.98;13.82;;;20.60;99.00;;;;;;5074556;28;20037;-88
2022/08/20 02:03:58;;;;;;;19.58;13.30;;;20.60;99.00;;;;;;5080143;28;20149;-85
2022/08/20 02:06:25;;;;;;;19.70;13.38;;;20.60;99.00;;;;;;5081467;28;20046;-87
2022/08/20 02:08:54;;;;;;;20.63;14.20;;;20.60;99.00;;;;;;5081072;28;20067;-87
2022/08/20 02:11:21;;;;;;;20.75;13.52;;;20.60;99.10;;;;;;5079908;28;20020;-88
2022/08/20 02:13:51;;;;;;;20.92;14.32;;;20.60;99.10;;;;;;5080958;28;20033;-89
2022/08/20 02:16:20;;;;;;;21.08;14.18;;;20.60;99.20;;;;;;5079924;28;20020;-88
2022/08/20 02:18:47;;;;;;;20.38;13.75;;;20.60;99.20;;;;;;5080192;28;20024;-88
2022/08/20 02:21:13;;;;;;;20.98;14.32;;;20.60;99.20;;;;;;5079478;28;20043;-88
2022/08/20 02:23:38;;;;;;;25.65;15.25;;;20.60;99.20;;;;;;5079233;28;20028;-87
2022/08/20 02:26:06;;;;;;;19.33;13.13;;;20.60;99.20;;;;;;5079170;28;20032;-86
2022/08/20 02:28:31;;;;;;;19.90;12.82;;;20.60;99.20;;;;;;5047587;28;20052;-89
2022/08/20 02:30:59;;;;;;;22.02;13.57;;;20.50;99.20;;;;;;5080263;28;20063;-89
2022/08/20 02:33:24;;;;;;;18.98;12.80;;;20.60;99.20;;;;;;5079713;28;20040;-88
2022/08/20 02:35:55;;;;;;;22.35;13.98;;;20.60;99.30;;;;;;5079315;28;20056;-86
2022/08/20 02:38:20;;;;;;;20.38;13.27;;;20.60;99.30;;;;;;5079136;28;20024;-87
2022/08/20 02:40:47;;;;;;;22.45;15.13;;;20.60;99.30;;;;;;5078810;28;20674;-87
2022/08/20 02:43:14;;;;;;;19.00;13.35;;;20.60;99.30;;;;;;5078666;28;20062;-86
2022/08/20 02:45:42;;;;;;;18.80;13.68;;;20.60;99.30;;;;;;5080031;28;20054;-90
2022/08/20 02:48:11;;;;;;;21.70;14.27;;;20.60;99.40;;;;;;5079912;28;20426;-89
2022/08/20 02:50:36;;;;;;;21.85;13.65;;;20.60;99.40;;;;;;5079899;28;20371;-88
2022/08/20 02:53:02;;;;;;;21.05;13.68;;;20.60;99.40;;;;;;5080087;28;20139;-88
2022/08/20 02:55:28;;;;;;;21.65;14.23;;;20.60;99.40;;;;;;5079677;28;20055;-88
2022/08/20 02:57:58;;;;;;;18.23;12.82;;;20.60;99.40;;;;;;5061983;28;20111;-87
2022/08/20 03:00:24;;;;;;;21.08;13.35;;;20.60;99.50;;;;;;5078956;28;20033;-87
2022/08/20 03:02:50;;;;;;;18.10;12.18;;;20.60;99.50;;;;;;5080146;28;20552;-88
2022/08/20 03:05:16;;;;;;;19.42;13.27;;;20.60;99.50;;;;;;5062918;28;20044;-87
2022/08/20 03:07:47;;;;;;;18.50;13.00;;;20.60;99.60;;;;;;5081267;28;20461;-88
2022/08/20 03:10:14;;;;;;;19.40;12.98;;;20.60;99.60;;;;;;5079104;28;20037;-88
2022/08/20 03:12:40;;;;;;;17.30;11.77;;;20.60;99.70;;;;;;5078475;28;20418;-89
2022/08/20 03:15:08;;;;;;;15.13;10.18;;;20.60;99.70;;;;;;5075931;28;20078;-86
2022/08/20 03:17:35;;;;;;;17.20;10.02;;;20.60;99.60;;;;;;5075047;28;20017;-88
2022/08/20 03:20:01;;;;;;;11.68;8.10;;;20.60;99.60;;;;;;5058792;28;20534;-87
2022/08/20 03:22:26;;;;;;;14.80;7.93;;;20.60;99.50;;;;;;5076396;28;20091;-88
2022/08/20 03:24:52;;;;;;;12.35;7.72;;;20.70;99.50;;;;;;5058780;28;20025;-89
2022/08/20 03:27:17;;;;;;;13.02;7.57;;;20.60;99.40;;;;;;5060251;28;20020;-88
2022/08/20 03:29:43;;;;;;;11.07;6.95;;;20.60;99.40;;;;;;5044793;28;20027;-89
2022/08/20 03:32:09;;;;;;;10.20;6.65;;;20.60;99.30;;;;;;5062064;28;20028;-91
2022/08/20 03:34:34;;;;;;;12.95;7.50;;;20.60;99.20;;;;;;5062476;28;20039;-91
2022/08/20 03:37:00;;;;;;;14.70;9.25;;;20.60;99.10;;;;;;5077070;28;20079;-88
2022/08/20 03:39:25;;;;;;;14.45;8.70;;;20.60;99.10;;;;;;5079069;28;20032;-89
2022/08/20 03:41:51;;;;;;;12.95;7.93;;;20.50;99.00;;;;;;5087010;28;20548;-91
2022/08/20 03:44:17;;;;;;;14.82;7.78;;;20.50;99.10;;;;;;5083359;28;20388;-87
2022/08/20 03:46:43;;;;;;;12.20;7.57;;;20.50;99.10;;;;;;5062678;28;20434;-89
2022/08/20 03:49:08;;;;;;;11.38;6.85;;;20.40;99.10;;;;;;5080888;28;20029;-91
2022/08/20 03:51:34;;;;;;;14.43;6.93;;;20.50;99.10;;;;;;5076628;28;20468;-89
2022/08/20 03:54:00;;;;;;;9.68;6.20;;;20.40;99.10;;;;;;5059079;28;20033;-87
2022/08/20 03:56:28;;;;;;;11.48;6.25;;;20.50;99.10;;;;;;5058332;28;20049;-88
2022/08/20 03:58:54;;;;;;;11.18;5.80;;;20.50;99.10;;;;;;5076689;28;20017;-91
2022/08/20 04:01:20;;;;;;;13.52;7.22;;;20.50;99.10;;;;;;5058979;28;20119;-91
2022/08/20 04:03:46;;;;;;;10.20;6.45;;;20.40;99.00;;;;;;5075724;28;20055;-91
2022/08/20 04:06:12;;;;;;;8.88;6.90;;;20.50;99.10;;;;;;5075053;28;20033;-90
2022/08/20 04:08:39;;;;;;;11.38;6.28;;;20.50;99.10;;;;;;5065882;28;20393;-91
2022/08/20 04:11:04;;;;;;;8.85;5.72;;;20.50;99.10;;;;;;5070335;28;20062;-88
2022/08/20 04:13:30;;;;;;;10.10;6.25;;;20.50;99.10;;;;;;5071567;28;20021;-84
2022/08/20 04:15:56;;;;;;;10.40;5.70;;;20.50;99.10;;;;;;5075098;28;20376;-88
2022/08/20 04:18:24;;;;;;;10.05;6.93;;;20.50;99.10;;;;;;5055133;28;20098;-87
2022/08/20 04:20:51;;;;;;;12.73;6.35;;;20.40;99.10;;;;;;5072333;28;20036;-87
2022/08/20 04:23:17;;;;;;;10.98;6.75;;;20.40;99.00;;;;;;5072833;28;20180;-86
2022/08/20 04:25:44;;;;;;;9.10;6.10;;;20.50;99.10;;;;;;5073647;28;20032;-90
2022/08/20 04:28:15;;;;;;;9.82;6.85;;;20.40;99.00;;;;;;5068852;28;20116;-87
2022/08/20 04:30:41;;;;;;;11.90;6.95;;;20.40;99.00;;;;;;5076282;28;20048;-87
2022/08/20 04:33:08;;;;;;;8.50;5.45;;;20.40;98.90;;;;;;5075578;28;20472;-88
2022/08/20 04:35:33;;;;;;;9.43;6.00;;;20.40;98.90;;;;;;5074910;28;20036;-89
2022/08/20 04:38:05;;;;;;;9.23;5.97;;;20.30;98.80;;;;;;5075626;28;20028;-89
2022/08/20 04:43:17;;;;;;;9.68;5.10;;;20.30;98.80;;;;;;5081170;28;20044;-88
2022/08/20 04:45:43;;;;;;;8.65;5.38;;;20.30;98.90;;;;;;5082747;28;20052;-87
2022/08/20 04:48:09;;;;;;;12.18;6.60;;;20.30;98.80;;;;;;5083538;28;20476;-87
2022/08/20 04:50:37;;;;;;;9.43;5.40;;;20.30;98.80;;;;;;5079927;28;20054;-88
2022/08/20 04:53:05;;;;;;;11.18;6.25;;;20.20;98.80;;;;;;5073310;28;20052;-85
2022/08/20 04:55:30;;;;;;;8.20;5.75;;;20.20;98.80;;;;;;5073718;28;20060;-87
2022/08/20 04:58:08;;;;;;;10.75;6.20;;;20.20;98.80;;;;;;5074755;28;20028;-88
2022/08/20 05:00:34;;;;;;;9.48;6.28;;;20.20;98.80;;;;;;5072403;28;20032;-85
2022/08/20 05:03:00;;;;;;;10.85;6.30;;;20.10;98.90;;;;;;5073781;28;20025;-86
2022/08/20 05:05:26;;;;;;;9.18;5.78;;;20.10;98.90;;;;;;5074430;28;20039;-88
2022/08/20 05:07:53;;;;;;;7.90;5.15;;;20.10;98.90;;;;;;5073888;28;20032;-85
2022/08/20 05:10:19;;;;;;;9.38;5.00;;;20.10;98.90;;;;;;5074295;28;20119;-88
2022/08/20 05:12:45;;;;;;;8.57;4.53;;;20.00;98.90;;;;;;5074225;28;20456;-89
2022/08/20 05:15:11;;;;;;;6.78;3.47;;;20.10;98.90;;;;;;5062352;28;20472;-88
2022/08/20 05:17:39;;;;;;;10.00;3.92;;;20.00;98.80;;;;;;5072906;28;20017;-87
2022/08/20 05:20:09;;;;;;;6.57;3.20;;;20.00;98.70;;;;;;5074603;28;20029;-83
2022/08/20 05:22:35;;;;;;;7.03;3.28;;;20.00;98.60;;;;;;5074724;28;20016;-89
2022/08/20 05:25:01;;;;;;;5.45;3.10;;;20.00;98.50;;;;;;5074318;28;20445;-85
2022/08/20 05:27:27;;;;;;;6.45;3.10;;;20.00;98.50;;;;;;5072043;28;20036;-83
2022/08/20 05:30:05;;;;;;;8.93;3.72;;;20.00;98.50;;;;;;5073387;28;20028;-82
2022/08/20 05:32:32;;;;;;;9.82;3.53;;;19.90;98.40;;;;;;5074151;28;20024;-84
2022/08/20 05:34:58;;;;;;;5.30;3.63;;;19.90;98.40;;;;;;5073805;28;20024;-85
2022/08/20 05:37:23;;;;;;;6.47;3.15;;;19.90;98.50;;;;;;5073536;28;20423;-85
2022/08/20 05:39:49;;;;;;;5.65;2.63;;;19.90;98.50;;;;;;5055925;28;20029;-85
2022/08/20 05:42:15;;;;;;;5.10;3.15;;;19.90;98.40;;;;;;5072809;28;20413;-86
2022/08/20 05:44:41;;;;;;;7.32;3.15;;;19.90;98.30;;;;;;5056253;28;20036;-86
2022/08/20 05:47:06;;;;;;;6.97;2.78;;;19.80;98.30;;;;;;5057925;28;20037;-87
2022/08/20 05:49:32;;;;;;;7.28;2.88;;;19.80;98.30;;;;;;5076090;28;20112;-85
2022/08/20 05:51:58;;;;;;;6.55;3.63;;;19.80;98.40;;;;;;5082020;28;20426;-89
2022/08/20 05:54:24;;;;;;;6.80;3.55;;;19.80;98.40;;;;;;5081558;28;20119;-89
2022/08/20 05:56:50;;;;;;;5.93;3.40;;;19.80;98.40;;;;;;5086921;28;20042;-89
2022/08/20 05:59:16;;;;;;;9.13;3.65;;;19.80;98.50;;;;;;5090027;28;20021;-91
2022/08/20 06:01:42;;;;;;;5.20;3.30;;;19.80;98.50;;;;;;5089559;28;20095;-91
2022/08/20 06:04:25;;;;;;;9.30;3.00;;;19.80;98.50;;;;;;5080031;28;20024;-81
2022/08/20 06:07:03;;;;;;;7.05;3.90;;;19.80;98.60;;;;;;5073333;28;20487;-83
2022/08/20 06:09:29;;;;;;;5.07;2.92;;;19.90;98.70;;;;;;5072729;28;20035;-82
2022/08/20 06:11:55;;;;;;;7.15;2.80;;;19.90;98.70;;;;;;5072204;28;20025;-81
2022/08/20 06:14:21;;;;;;;5.97;2.85;;;19.90;98.80;;;;;;5071655;28;20495;-82
2022/08/20 06:16:47;;;;;;;9.23;3.95;;;20.00;98.80;;;;;;5071758;28;20060;-81
2022/08/20 06:19:12;;;;;;;8.20;3.25;;;20.00;98.80;;;;;;5072508;28;20025;-82
2022/08/20 06:21:39;;;;;;;8.00;3.40;;;20.00;98.80;;;;;;5041285;28;20535;-82
2022/08/20 06:24:06;;;;;;;8.95;3.28;;;20.10;98.80;;;;;;5052724;28;20108;-82
2022/08/20 06:26:33;;;;;;;5.80;3.22;;;20.10;98.80;;;;;;5052502;28;20021;-83
2022/08/20 06:29:04;;;;;;;8.70;3.05;;;20.10;98.80;;;;;;5056591;28;20028;-83
2022/08/20 06:31:30;;;;;;;3.95;2.97;;;20.10;98.70;;;;;;5069041;28;20485;-82
2022/08/20 06:33:55;;;;;;;6.00;4.03;;;20.20;98.70;;;;;;5072913;28;20021;-82
2022/08/20 06:36:22;;;;;;;5.60;3.00;;;20.20;98.60;;;;;;5071500;28;20020;-83
2022/08/20 06:38:48;;;;;;;5.28;3.13;;;20.20;98.60;;;;;;5071799;28;20024;-83
2022/08/20 06:41:16;;;;;;;6.00;2.40;;;20.20;98.50;;;;;;5063182;28;20032;-83
2022/08/20 06:43:41;;;;;;;6.70;2.90;;;20.30;98.50;;;;;;5051162;28;20079;-83
2022/08/20 06:46:07;;;;;;;5.28;2.45;;;20.30;98.40;;;;;;5056786;28;20033;-82
2022/08/20 06:48:33;;;;;;;7.05;3.22;;;20.30;98.30;;;;;;5044954;28;20021;-83
2022/08/20 06:51:00;;;;;;;6.30;2.88;;;20.30;98.10;;;;;;5063272;28;20036;-83
2022/08/20 06:53:25;;;;;;;7.55;3.20;;;20.30;98.10;;;;;;5052095;28;20029;-82
2022/08/20 06:55:53;;;;;;;11.18;3.03;;;20.40;98.00;;;;;;5067744;28;20099;-83
2022/08/20 06:58:19;;;;;;;7.32;3.38;;;20.40;97.90;;;;;;5074524;28;20160;-82
2022/08/20 07:00:46;;;;;;;7.43;2.70;;;20.30;97.80;;;;;;5074672;28;20032;-81
2022/08/20 07:03:13;;;;;;;6.65;2.90;;;20.20;97.80;;;;;;5076121;28;20052;-83
2022/08/20 07:05:41;;;;;;;6.45;2.58;;;20.20;97.70;;;;;;5074753;28;20056;-82
2022/08/20 07:08:12;;;;;;;7.80;2.78;;;20.30;97.80;;;;;;5076809;28;20123;-82
2022/08/20 07:10:39;;;;;;;6.10;2.78;;;20.20;97.80;;;;;;5081240;28;20020;-82
2022/08/20 07:13:05;;;;;;;7.38;3.00;;;20.20;97.70;;;;;;5081016;28;20033;-81
2022/08/20 07:15:31;;;;;;;10.98;3.22;;;20.20;97.70;;;;;;5079009;28;20024;-81
2022/08/20 07:17:59;;;;;;;4.68;2.63;;;20.20;97.60;;;;;;5058091;28;20025;-82
2022/08/20 07:20:25;;;;;;;8.80;3.08;;;20.20;97.50;;;;;;5074726;28;20039;-81
2022/08/20 07:22:51;;;;;;;7.10;2.53;;;20.20;97.40;;;;;;5076024;28;20033;-81
2022/08/20 07:25:19;;;;;;;8.15;2.30;;;20.20;97.30;;;;;;5057593;28;20511;-82
2022/08/20 07:27:44;;;;;;;5.13;2.05;;;20.30;97.20;;;;;;5074985;28;20107;-83
2022/08/20 07:33:02;;;;;;;7.97;2.42;;;20.30;96.50;;;;;;5081135;28;20067;-88
2022/08/20 07:35:28;;;;;;;4.93;1.60;;;20.20;96.30;;;;;;5081537;28;20079;-87
2022/08/20 07:37:55;;;;;;;6.07;1.52;;;20.20;96.20;;;;;;5078101;28;20025;-87
2022/08/20 07:40:26;;;;;;;9.18;2.30;;;20.20;96.10;;;;;;5076472;28;20032;-86
2022/08/20 07:42:57;;;;;;;6.43;2.30;;;20.20;96.00;;;;;;5074777;28;20077;-87
2022/08/20 07:45:23;;;;;;;5.85;1.65;;;20.30;96.00;;;;;;5076270;28;20029;-83
2022/08/20 07:47:52;;;;;;;5.43;2.08;;;20.30;95.90;;;;;;5075285;28;20074;-87
2022/08/20 07:50:20;;;;;;;6.15;2.25;;;20.30;95.80;;;;;;5076136;28;20029;-86
2022/08/20 07:52:47;;;;;;;7.80;2.00;;;20.40;95.60;;;;;;5075992;28;20480;-87
2022/08/20 07:55:15;;;;;;;10.00;2.33;;;20.40;95.50;;;;;;5075006;28;20047;-85
2022/08/20 07:57:41;;;;;;;8.07;1.85;;;20.40;95.40;;;;;;5073857;28;20042;-86
2022/08/20 08:00:09;;;;;;;3.22;1.45;;;20.40;95.50;;;;;;5073992;28;20048;-85
2022/08/20 08:02:35;;;;;;;6.47;1.92;;;20.50;95.10;;;;;;5074923;28;20075;-85
2022/08/20 08:05:02;;;;;;;7.03;2.33;;;20.50;95.00;;;;;;5058039;28;20434;-86
2022/08/20 08:07:27;;;;;;;4.50;1.40;;;20.60;94.80;;;;;;5073842;28;20181;-86
2022/08/20 08:09:55;;;;;;;6.78;1.70;;;20.60;94.60;;;;;;5057732;28;20036;-84
2022/08/20 08:12:22;;;;;;;6.05;1.58;;;20.70;94.40;;;;;;5074286;28;20051;-86
2022/08/20 08:14:49;;;;;;;6.70;1.52;;;20.70;94.20;;;;;;5075118;28;20074;-86
2022/08/20 08:17:17;;;;;;;6.68;1.60;;;20.80;94.10;;;;;;5057450;28;20029;-85
2022/08/20 08:19:47;;;;;;;7.78;1.70;;;20.80;93.80;;;;;;5073980;28;20063;-86
2022/08/20 08:22:16;;;;;;;7.45;1.50;;;20.80;93.60;;;;;;5073433;28;20043;-84
2022/08/20 08:24:44;;;;;;;4.95;1.30;;;20.90;93.50;;;;;;5073895;28;20469;-86
2022/08/20 08:27:10;;;;;;;5.85;1.10;;;20.90;93.20;;;;;;5057662;28;20476;-87
2022/08/20 08:29:36;;;;;;;6.35;1.60;;;21.00;93.10;;;;;;5074272;28;20073;-86
2022/08/20 08:32:03;;;;;;;9.10;1.80;;;21.00;92.90;;;;;;5076424;28;20032;-87
2022/08/20 08:34:31;;;;;;;4.63;1.50;;;21.00;92.80;;;;;;5074282;28;20029;-85
2022/08/20 08:36:57;;;;;;;6.35;1.70;;;21.10;92.60;;;;;;5074358;28;20021;-85
2022/08/20 08:39:24;;;;;;;5.35;1.25;;;21.10;92.40;;;;;;5060639;28;20028;-85
2022/08/20 08:41:51;;;;;;;6.90;1.70;;;21.20;92.30;;;;;;5077284;28;20041;-86
2022/08/20 08:44:21;;;;;;;6.35;1.52;;;21.20;92.20;;;;;;5077464;28;20058;-85
2022/08/20 08:46:50;;;;;;;4.90;1.52;;;21.30;92.00;;;;;;5075223;28;20086;-85
2022/08/20 08:49:20;;;;;;;5.97;1.33;;;21.30;91.90;;;;;;5060390;28;20035;-86
2022/08/20 08:51:47;;;;;;;5.43;1.35;;;21.40;91.90;;;;;;5077388;28;20023;-86
2022/08/20 08:54:20;;;;;;;7.10;1.60;;;21.40;91.80;;;;;;5077873;28;20020;-87
2022/08/20 08:56:46;;;;;;;3.40;1.23;;;21.50;91.60;;;;;;5078774;28;20499;-86
2022/08/20 08:59:12;;;;;;;7.90;1.67;;;21.50;91.50;;;;;;5079090;28;20041;-87
2022/08/20 09:01:45;;;;;;;7.55;1.20;;;21.60;91.30;;;;;;5075769;28;20044;-86
2022/08/20 09:04:13;;;;;;;7.25;1.50;;;21.60;91.00;;;;;;5074575;28;20032;-86
2022/08/20 09:06:39;;;;;;;3.78;1.00;;;21.70;90.70;;;;;;5057243;28;20034;-85
2022/08/20 09:09:06;;;;;;;4.70;1.05;;;21.80;90.50;;;;;;5058059;28;20035;-88
2022/08/20 09:11:48;;;;;;;6.28;1.25;;;21.80;90.30;;;;;;5075286;28;20062;-87
2022/08/20 09:14:14;;;;;;;6.63;1.40;;;21.90;90.10;;;;;;5076292;28;20023;-85
2022/08/20 09:16:39;;;;;;;7.78;1.38;;;22.00;89.80;;;;;;5056365;28;20115;-85
2022/08/20 09:19:05;;;;;;;5.32;1.42;;;22.10;88.60;;;;;;5056041;28;20024;-86
2022/08/20 09:21:30;;;;;;;7.13;1.83;;;22.20;87.80;;;;;;5056415;28;20051;-85
2022/08/20 09:23:56;;;;;;;4.80;1.23;;;22.40;87.10;;;;;;5056454;28;20016;-85
2022/08/20 09:26:22;;;;;;;8.63;1.40;;;22.40;86.40;;;;;;5073917;28;20093;-88
2022/08/20 09:28:47;;;;;;;6.07;1.30;;;22.50;85.80;;;;;;5056775;28;20115;-86
2022/08/20 09:31:13;;;;;;;7.72;1.20;;;22.60;85.20;;;;;;5056203;28;20029;-86
2022/08/20 09:33:39;;;;;;;5.53;1.25;;;22.60;84.50;;;;;;5056183;28;20214;-87
2022/08/20 09:36:07;;;;;;;5.35;1.20;;;22.70;83.10;;;;;;5055760;28;20119;-86
2022/08/20 09:38:33;;;;;;;4.03;0.88;;;22.80;81.50;;;;;;5057670;28;20036;-87
2022/08/20 09:41:00;;;;;;;5.65;1.20;;;22.90;81.00;;;;;;5072411;28;20045;-89
2022/08/20 09:43:26;;;;;;;3.53;1.27;;;23.00;79.80;;;;;;5074015;28;20029;-88
2022/08/20 09:45:52;;;;;;;6.80;1.38;;;23.00;78.90;;;;;;5068524;28;20033;-87
2022/08/20 09:48:17;;;;;;;6.82;1.50;;;23.10;78.40;;;;;;5052444;28;20029;-86
2022/08/20 09:50:48;;;;;;;5.60;1.20;;;23.20;78.00;;;;;;5051698;28;20047;-87
2022/08/20 09:53:15;;;;;;;6.10;1.05;;;23.20;77.50;;;;;;5050829;28;20021;-87
2022/08/20 09:55:43;;;;;;;6.75;1.23;;;23.30;76.80;;;;;;5051855;28;20077;-88
2022/08/20 09:58:43;;;;;;;6.85;1.40;;;23.30;76.10;;;;;;5052742;28;20021;-87
2022/08/20 10:01:15;;;;;;;4.45;0.88;;;23.40;75.40;;;;;;5051577;28;20029;-88
2022/08/20 10:03:42;;;;;;;5.18;0.85;;;23.40;75.10;;;;;;5052633;28;20029;-89
2022/08/20 10:06:07;;;;;;;5.22;1.10;;;23.50;74.50;;;;;;5052861;28;20041;-87
2022/08/20 10:08:33;;;;;;;5.60;1.00;;;23.60;73.80;;;;;;5070105;28;20025;-89
2022/08/20 10:10:59;;;;;;;9.10;1.20;;;23.60;73.00;;;;;;5019836;28;20021;-88
2022/08/20 10:13:24;;;;;;;5.53;1.17;;;23.60;72.10;;;;;;5036423;28;20021;-87
2022/08/20 10:15:50;;;;;;;5.40;1.20;;;23.60;71.70;;;;;;5036214;28;20033;-84
2022/08/20 10:18:16;;;;;;;5.65;1.20;;;23.60;71.50;;;;;;5036499;28;20037;-89
2022/08/20 10:20:42;;;;;;;5.60;0.80;;;23.70;71.40;;;;;;5052790;28;20049;-87
2022/08/20 10:23:07;;;;;;;8.57;1.13;;;23.80;71.00;;;;;;5056479;28;20036;-88
2022/08/20 10:25:33;;;;;;;5.22;1.13;;;23.90;70.50;;;;;;5057954;28;20036;-88
2022/08/20 10:27:59;;;;;;;7.95;1.23;;;24.00;69.50;;;;;;5059396;28;20028;-88
2022/08/20 10:30:25;;;;;;;10.13;1.30;;;24.00;68.80;;;;;;5059077;28;20051;-88
2022/08/20 10:32:51;;;;;;;5.63;1.00;;;24.00;68.40;;;;;;5058293;28;20085;-87
2022/08/20 10:35:17;;;;;;;5.78;1.00;;;24.00;68.30;;;;;;5040662;28;20366;-88
2022/08/20 10:37:44;;;;;;;5.82;0.90;;;24.00;68.00;;;;;;5057718;28;20036;-90
2022/08/20 10:40:10;;;;;;;8.07;1.13;;;24.10;67.90;;;;;;5040995;28;20029;-88
2022/08/20 10:42:35;;;;;;;5.05;0.90;;;24.10;67.60;;;;;;5041508;28;20389;-90
2022/08/20 10:45:01;;;;;;;5.28;0.95;;;24.10;67.10;;;;;;5058299;28;20029;-88
2022/08/20 10:47:31;;;;;;;5.50;1.13;;;24.20;66.80;;;;;;5042335;28;20049;-88
2022/08/20 10:50:00;;;;;;;6.57;1.35;;;24.20;66.70;;;;;;5058041;28;20074;-88
2022/08/20 10:52:27;;;;;;;5.95;1.30;;;24.30;66.70;;;;;;5058458;28;20025;-88
2022/08/20 10:54:53;;;;;;;5.45;0.98;;;24.40;66.40;;;;;;5058697;28;20045;-90
2022/08/20 10:57:24;;;;;;;7.50;1.02;;;24.50;65.90;;;;;;5059053;28;20082;-89
2022/08/20 10:59:52;;;;;;;6.95;1.00;;;24.60;65.30;;;;;;5057044;28;20053;-88
2022/08/20 11:02:19;;;;;;;4.85;0.73;;;24.80;64.90;;;;;;5058120;28;20051;-88
2022/08/20 11:04:45;;;;;;;4.55;0.82;;;25.00;64.20;;;;;;5058722;28;20029;-91
2022/08/20 11:07:11;;;;;;;3.25;0.63;;;25.10;63.40;;;;;;5057359;28;20047;-89
2022/08/20 11:09:36;;;;;;;6.63;1.08;;;25.30;63.00;;;;;;5059287;28;20086;-88
2022/08/20 11:12:03;;;;;;;7.22;1.23;;;25.40;62.40;;;;;;5058038;28;20084;-88
2022/08/20 11:14:28;;;;;;;4.72;0.80;;;25.60;60.60;;;;;;5060057;28;20025;-89
2022/08/20 11:16:54;;;;;;;9.85;1.15;;;25.90;60.20;;;;;;5042332;28;20047;-88
2022/08/20 11:19:19;;;;;;;4.35;0.88;;;25.90;59.90;;;;;;5059348;28;20108;-89
2022/08/20 11:21:45;;;;;;;5.25;0.70;;;26.10;59.90;;;;;;5060333;28;20098;-89
2022/08/20 11:24:11;;;;;;;5.97;0.80;;;26.20;59.70;;;;;;5058654;28;20079;-87
2022/08/20 11:26:36;;;;;;;5.65;0.88;;;26.40;59.40;;;;;;5058762;28;20037;-89
2022/08/20 11:29:02;;;;;;;8.40;0.88;;;26.60;59.30;;;;;;5039544;28;20063;-87
2022/08/20 11:31:28;;;;;;;3.88;0.60;;;26.80;58.80;;;;;;5058133;28;20021;-89
2022/08/20 11:33:53;;;;;;;5.30;1.00;;;27.10;58.40;;;;;;5043583;28;20124;-88
2022/08/20 11:36:19;;;;;;;5.03;0.90;;;27.30;58.00;;;;;;5042316;28;20088;-89
2022/08/20 11:38:45;;;;;;;5.38;0.63;;;27.50;57.40;;;;;;5043227;28;20033;-89
2022/08/20 11:41:10;;;;;;;6.88;0.90;;;27.70;56.90;;;;;;5059918;28;20504;-87
2022/08/20 11:43:36;;;;;;;7.25;0.80;;;27.90;56.30;;;;;;5057326;28;20033;-88
2022/08/20 11:46:02;;;;;;;4.82;0.90;;;28.10;55.80;;;;;;5043604;28;20463;-89
2022/08/20 11:48:27;;;;;;;4.65;0.80;;;28.30;55.10;;;;;;5058312;28;20029;-88
2022/08/20 11:50:53;;;;;;;3.30;0.70;;;28.50;54.30;;;;;;5058917;28;20035;-84
2022/08/20 11:53:19;;;;;;;4.75;0.63;;;28.80;53.70;;;;;;5057325;28;20047;-86
2022/08/20 11:55:45;;;;;;;6.32;0.98;;;29.00;53.00;;;;;;5054308;28;20114;-87
2022/08/20 11:58:11;;;;;;;4.20;0.63;;;29.30;51.50;;;;;;5054864;28;20029;-88
2022/08/20 12:00:36;;;;;;;4.30;0.82;;;29.50;50.80;;;;;;5038843;28;20033;-85
2022/08/20 12:03:04;;;;;;;7.50;1.05;;;29.70;49.90;;;;;;5055342;28;20090;-86
2022/08/20 12:05:30;;;;;;;5.40;0.98;;;29.90;49.20;;;;;;5056223;28;20078;-87
2022/08/20 12:07:59;;;;;;;6.13;0.82;;;30.00;48.70;;;;;;5054053;28;20108;-87
2022/08/20 12:10:25;;;;;;;3.83;0.90;;;30.10;48.10;;;;;;5054589;28;20024;-87
2022/08/20 12:12:51;;;;;;;5.22;1.00;;;30.40;47.70;;;;;;5055781;28;20025;-88
2022/08/20 12:15:16;;;;;;;7.38;1.17;;;30.50;47.30;;;;;;5054257;28;20021;-87
2022/08/20 12:17:42;;;;;;;6.32;1.02;;;30.60;46.80;;;;;;5054392;28;20523;-86
2022/08/20 12:20:11;;;;;;;8.68;1.10;;;30.70;46.40;;;;;;5037289;28;20061;-85
2022/08/20 12:22:38;;;;;;;4.38;0.75;;;30.80;45.50;;;;;;5070169;28;20025;-86
2022/08/20 12:25:05;;;;;;;4.53;0.60;;;31.00;45.60;;;;;;5055391;28;20033;-87
2022/08/20 12:27:32;;;;;;;8.45;1.02;;;31.20;46.00;;;;;;5055334;28;20032;-86
2022/08/20 12:30:00;;;;;;;5.32;0.77;;;31.50;45.10;;;;;;5071385;28;20025;-88
2022/08/20 12:32:28;;;;;;;5.10;0.85;;;31.80;44.60;;;;;;5055122;28;20052;-87
2022/08/20 12:34:54;;;;;;;5.35;0.80;;;31.90;44.30;;;;;;5055208;28;20112;-88
2022/08/20 12:37:22;;;;;;;4.43;1.00;;;32.10;44.10;;;;;;5056075;28;20068;-86
2022/08/20 12:39:50;;;;;;;4.85;0.80;;;32.30;43.70;;;;;;5054950;28;20517;-88
2022/08/20 12:42:16;;;;;;;5.30;1.10;;;32.60;43.50;;;;;;5056086;28;20120;-87
2022/08/20 12:44:42;;;;;;;4.47;0.70;;;32.80;43.20;;;;;;5055320;28;20025;-87
2022/08/20 12:47:12;;;;;;;4.53;0.93;;;33.00;43.10;;;;;;5059538;28;20021;-88